Startpagina
METAR-TAF:

METAR-TAF

Vliegvelden :

Internationale luchthaven Changi

Singapore, Singapore

breedte: 01-22N, lengte: 103-59E, hoogte: 5 m

Actueel weer

Dit bericht is 21 minuten geleden gemaakt, om 08:30 UTC
Wind 5 kt uit het zuidzuidwesten, variërend tussen het zuidzuidoosten en het westen
Temperatuur 31°C
Vochtigheid 63%
Druk 1009 hPa
Zicht 10 km of meer
Weinig wolken op 2000 ft, Stapelwolken.
Gebroken wolken op 30000 ft

METAR: WSSS 200830Z 21005KT 160V260 9999 FEW020TCU BKN300 31/23 Q1009 NOSIG

Tijdstip: 16:51 (08:51 UTC)

Verwachting

Dit bericht is 51 minuten geleden gemaakt, om 08:00 UTC
Verwachting geldig van 20 om 08 UTC tot 21 om 12 UTC
Wind 7 kt uit het zuiden
Zicht 10 km of meer
Weinig wolken op 1800 ft, Cumulonimbus.
Verspreide wolken op 2000 ft
Tijdelijke
van 21 om 01 UTC tot 21 om 05 UTC
Zicht: 3000 m
Weinig wolken op 1200 ft, Cumulonimbus.
Gebroken wolken op 1500 ft
onweer, regen

TAF: WSSS 200800Z 2008/2112 18007KT 9999 FEW018CB SCT020 TEMPO 2101/2105 3000 TSRA FEW012CB BKN015

Waarnemingen en weersverwachtingen van meer dan 4000 vliegvelden (METAR en TAF).

De beschikbare stations zijn de gele en rode punten op de kaart.

Ga met uw muis naar het station om de naam te zien.

Klik dan om waarnemingen en weersverwachtingen te zien.

kaart wijzigen: klik op de groene knoppen met een zwart kruis om in te zoomen, op de groene knop met een streepje om uit te zoomen of op de groene pijlen voor aangrenzende kaarten.


METAR-TAF: